Terminal Aerodrome Forecast
Issued by NWS

Home | Current Version | Previous Version | Text Only | Print | Product List | Glossary Off
Versions: 1 2 3 4 5 6 7 8 9 10 11 12 13 14 15 16 17 18 19 20

000
FTUS43 KGRB 011141
TAFATW
TAF
KATW 011141Z 0112/0212 VRB03KT 2SM BR BKN015
      TEMPO 0112/0114 1/2SM FG BKN005
     FM011400 21006KT P6SM BKN018
     FM011800 21008KT P6SM FEW020 SCT200
     FM020400 21004KT 3SM BR SCT200
      TEMPO 0208/0212 1SM BR BKN005=

USA.gov is the U.S. government's official web portal to all federal, state and local government web resources and services.